createdAt,value
2023-02-22T00:01:08.420Z,17.62
2023-02-22T00:03:36.718Z,17.62
2023-02-22T00:06:06.467Z,17.61
2023-02-22T00:08:36.526Z,17.60
2023-02-22T00:11:10.795Z,17.59
2023-02-22T00:13:39.401Z,17.54
2023-02-22T00:16:08.427Z,17.55
2023-02-22T00:18:37.971Z,17.52
2023-02-22T00:21:10.819Z,17.51
2023-02-22T00:23:43.826Z,17.51
2023-02-22T00:26:18.546Z,17.48
2023-02-22T00:28:54.793Z,17.47
2023-02-22T00:31:25.851Z,17.45
2023-02-22T00:33:54.064Z,17.45
2023-02-22T00:36:22.696Z,17.44
2023-02-22T00:38:50.898Z,17.43
2023-02-22T00:41:19.733Z,17.40
2023-02-22T00:43:49.335Z,17.40
2023-02-22T00:46:17.946Z,17.41
2023-02-22T00:48:47.280Z,17.39
2023-02-22T00:51:16.098Z,17.38
2023-02-22T00:53:45.690Z,17.37
2023-02-22T00:56:14.213Z,17.37
2023-02-22T00:58:42.466Z,17.36
2023-02-22T01:01:11.113Z,17.35
2023-02-22T01:03:41.460Z,17.35
2023-02-22T01:06:10.185Z,17.33
2023-02-22T01:08:38.462Z,17.33
2023-02-22T01:11:07.049Z,17.34
2023-02-22T01:13:35.739Z,17.32
2023-02-22T01:16:08.063Z,17.32
2023-02-22T01:18:37.061Z,17.30
2023-02-22T01:21:06.841Z,17.26
2023-02-22T01:23:37.130Z,17.30
2023-02-22T01:26:06.255Z,17.28
2023-02-22T01:28:34.922Z,17.27
2023-02-22T01:31:04.219Z,17.26
2023-02-22T01:33:34.282Z,17.26
2023-02-22T01:36:03.946Z,17.25
2023-02-22T01:38:32.134Z,17.26
2023-02-22T01:41:01.870Z,17.24
2023-02-22T01:43:32.755Z,17.24
2023-02-22T01:46:06.543Z,17.24
2023-02-22T01:48:34.749Z,17.23
2023-02-22T01:51:14.412Z,17.23
2023-02-22T01:54:00.015Z,17.20
2023-02-22T01:56:30.740Z,17.17
2023-02-22T01:59:03.713Z,17.20
2023-02-22T02:01:33.075Z,17.19
2023-02-22T02:04:05.705Z,17.18
2023-02-22T02:06:35.704Z,17.17
2023-02-22T02:09:54.196Z,17.17
2023-02-22T02:12:23.658Z,17.17
2023-02-22T02:14:52.827Z,17.16
2023-02-22T02:17:23.466Z,17.16
2023-02-22T02:20:01.318Z,17.15
2023-02-22T02:22:49.213Z,17.14
2023-02-22T02:25:41.938Z,17.14
2023-02-22T02:28:13.430Z,17.14
2023-02-22T02:30:41.648Z,17.13
2023-02-22T02:33:26.469Z,17.12
2023-02-22T02:36:06.564Z,17.12
2023-02-22T02:38:42.966Z,17.12
2023-02-22T02:41:17.384Z,17.10
2023-02-22T02:43:58.198Z,17.09
2023-02-22T02:46:32.433Z,17.08
2023-02-22T02:49:08.218Z,17.08
2023-02-22T02:51:43.389Z,17.07
2023-02-22T02:54:13.929Z,17.07
2023-02-22T02:56:44.071Z,17.04
2023-02-22T02:59:34.111Z,17.06
2023-02-22T03:02:20.634Z,17.06
2023-02-22T03:05:00.367Z,17.06
2023-02-22T03:07:36.168Z,17.04
2023-02-22T03:10:26.533Z,17.04
2023-02-22T03:12:59.084Z,17.03
2023-02-22T03:15:37.332Z,17.03
2023-02-22T03:18:39.712Z,17.03
2023-02-22T03:21:17.525Z,17.00
2023-02-22T03:24:10.966Z,17.02
2023-02-22T03:26:47.105Z,16.99
2023-02-22T03:29:18.654Z,16.99
2023-02-22T03:31:52.751Z,17.00
2023-02-22T03:34:30.243Z,17.00
2023-02-22T03:37:09.576Z,16.98
2023-02-22T03:39:39.322Z,16.98
2023-02-22T03:42:15.903Z,16.97
2023-02-22T03:44:46.104Z,16.99
2023-02-22T03:47:23.553Z,16.97
2023-02-22T03:49:58.929Z,16.97
2023-02-22T03:52:27.554Z,16.97
2023-02-22T03:54:55.973Z,16.97
2023-02-22T03:57:29.174Z,16.97
2023-02-22T04:00:08.174Z,16.96
2023-02-22T04:02:42.663Z,16.95
2023-02-22T04:05:16.344Z,16.97
2023-02-22T04:07:45.374Z,16.94
2023-02-22T04:10:16.573Z,16.92
2023-02-22T04:12:45.807Z,16.94
2023-02-22T04:15:18.325Z,16.95
2023-02-22T04:17:47.552Z,16.94
2023-02-22T04:20:20.091Z,16.93
2023-02-22T04:23:01.679Z,16.92
2023-02-22T04:25:31.161Z,16.93
2023-02-22T04:28:04.513Z,16.94
2023-02-22T04:30:40.014Z,16.93
2023-02-22T04:33:13.821Z,16.91
2023-02-22T04:35:42.489Z,16.89
2023-02-22T04:38:11.998Z,16.94
2023-02-22T04:40:41.905Z,16.98
2023-02-22T04:43:10.802Z,17.03
2023-02-22T04:45:41.352Z,17.10
2023-02-22T04:48:11.023Z,17.14
2023-02-22T04:50:39.698Z,17.21
2023-02-22T04:53:08.317Z,17.26
2023-02-22T04:55:39.270Z,17.33
2023-02-22T04:58:09.501Z,17.47
2023-02-22T05:00:39.071Z,17.58
2023-02-22T05:03:09.064Z,17.67
2023-02-22T05:05:37.421Z,17.64
2023-02-22T05:08:06.030Z,17.69
2023-02-22T05:10:34.191Z,17.68
2023-02-22T05:13:04.104Z,17.70
2023-02-22T05:15:32.841Z,17.69
2023-02-22T05:18:01.466Z,17.66
2023-02-22T05:20:34.838Z,17.67
2023-02-22T05:23:04.127Z,17.64
2023-02-22T05:25:33.521Z,17.62
2023-02-22T05:28:05.550Z,17.61
2023-02-22T05:30:36.566Z,17.56
2023-02-22T05:33:05.240Z,17.58
2023-02-22T05:35:33.476Z,17.58
2023-02-22T05:38:04.051Z,17.55
2023-02-22T05:40:33.095Z,17.51
2023-02-22T05:43:03.000Z,17.52
2023-02-22T05:45:31.338Z,17.52
2023-02-22T05:47:59.865Z,17.48
2023-02-22T05:50:28.281Z,17.46
2023-02-22T05:52:56.917Z,17.44
2023-02-22T05:55:25.764Z,17.45
2023-02-22T05:57:54.615Z,17.44
2023-02-22T06:00:30.670Z,17.40
2023-02-22T06:03:05.040Z,17.42
2023-02-22T06:05:33.394Z,17.37
2023-02-22T06:08:03.981Z,17.38
2023-02-22T06:10:35.014Z,17.37
2023-02-22T06:13:05.902Z,17.37
2023-02-22T06:15:34.353Z,17.34
2023-02-22T06:18:02.930Z,17.34
2023-02-22T06:20:31.560Z,17.28
2023-02-22T06:23:00.226Z,17.28
2023-02-22T06:25:33.677Z,17.28
2023-02-22T06:28:02.735Z,17.28
2023-02-22T06:30:31.627Z,17.26
2023-02-22T06:33:00.167Z,17.26
2023-02-22T06:35:28.334Z,17.27
2023-02-22T06:37:56.825Z,17.24
2023-02-22T06:40:29.669Z,17.26
2023-02-22T06:42:58.904Z,17.25
2023-02-22T06:45:27.439Z,17.22
2023-02-22T06:47:55.934Z,17.21
2023-02-22T06:50:28.956Z,17.19
2023-02-22T06:52:58.239Z,17.19
2023-02-22T06:55:28.584Z,17.18
2023-02-22T06:57:57.052Z,17.12
2023-02-22T07:00:27.195Z,17.15
2023-02-22T07:02:56.337Z,17.14
2023-02-22T07:05:25.614Z,17.14
2023-02-22T07:07:56.805Z,17.12
2023-02-22T07:10:28.608Z,17.11
2023-02-22T07:12:57.458Z,17.14
2023-02-22T07:15:28.191Z,17.15
2023-02-22T07:17:57.355Z,17.10
2023-02-22T07:20:27.859Z,17.10
2023-02-22T07:22:56.478Z,17.09
2023-02-22T07:25:25.650Z,17.07
2023-02-22T07:27:54.540Z,17.07
2023-02-22T07:30:31.376Z,17.04
2023-02-22T07:33:01.979Z,17.03
2023-02-22T07:35:39.327Z,17.03
2023-02-22T07:38:08.716Z,17.03
2023-02-22T07:40:38.181Z,17.01
2023-02-22T07:43:24.257Z,17.01
2023-02-22T07:45:56.331Z,17.00
2023-02-22T07:48:26.870Z,17.01
2023-02-22T07:50:55.431Z,17.00
2023-02-22T07:53:30.484Z,17.03
2023-02-22T07:56:00.470Z,17.04
2023-02-22T07:58:30.384Z,17.02
2023-02-22T08:01:02.379Z,17.00
2023-02-22T08:03:36.957Z,16.99
2023-02-22T08:06:07.536Z,16.96
2023-02-22T08:08:35.753Z,16.95
2023-02-22T08:11:05.263Z,16.93
2023-02-22T08:13:33.520Z,16.94
2023-02-22T08:16:03.717Z,16.93
2023-02-22T08:18:31.948Z,16.93
2023-02-22T08:21:00.746Z,16.94
2023-02-22T08:23:28.981Z,16.92
2023-02-22T08:25:57.993Z,16.91
2023-02-22T08:28:26.462Z,16.91
2023-02-22T08:30:55.083Z,16.91
2023-02-22T08:33:23.724Z,16.90
2023-02-22T08:35:52.613Z,16.90
2023-02-22T08:38:34.187Z,16.90
2023-02-22T08:41:02.710Z,16.91
2023-02-22T08:43:30.894Z,16.93
2023-02-22T08:45:59.438Z,16.90
2023-02-22T08:48:27.740Z,16.92
2023-02-22T08:50:56.450Z,16.90
2023-02-22T08:53:24.721Z,16.88
2023-02-22T08:55:53.825Z,16.90
2023-02-22T08:58:22.148Z,16.90
2023-02-22T09:00:51.136Z,16.89
2023-02-22T09:03:19.490Z,16.88
2023-02-22T09:05:48.089Z,16.90
2023-02-22T09:08:17.595Z,16.90
2023-02-22T09:10:46.209Z,16.88
2023-02-22T09:13:14.408Z,16.89
2023-02-22T09:15:43.337Z,16.87
2023-02-22T09:18:14.809Z,16.87
2023-02-22T09:20:43.585Z,16.85
2023-02-22T09:23:12.699Z,16.88
2023-02-22T09:25:41.740Z,16.87
2023-02-22T09:28:10.177Z,16.88
2023-02-22T09:30:38.829Z,16.89
2023-02-22T09:33:13.382Z,16.88
2023-02-22T09:35:46.646Z,16.88
2023-02-22T09:38:19.913Z,16.88
2023-02-22T09:40:55.182Z,16.89
2023-02-22T09:43:26.376Z,16.88
2023-02-22T09:46:19.906Z,16.86
2023-02-22T09:48:54.410Z,16.90
2023-02-22T09:51:27.613Z,16.91
2023-02-22T09:53:59.710Z,16.93
2023-02-22T09:56:30.047Z,16.92
2023-02-22T09:59:03.923Z,16.95
2023-02-22T10:01:42.856Z,16.95
2023-02-22T10:04:36.524Z,16.98
2023-02-22T10:07:12.914Z,16.98
2023-02-22T10:09:42.931Z,16.95
2023-02-22T10:12:23.423Z,16.96
2023-02-22T10:15:41.328Z,17.00
2023-02-22T10:18:48.154Z,17.00
2023-02-22T10:21:40.544Z,17.01
2023-02-22T10:24:23.291Z,17.02
2023-02-22T10:26:54.364Z,16.99
2023-02-22T10:29:42.301Z,17.03
2023-02-22T10:32:25.749Z,17.01
2023-02-22T10:34:55.570Z,17.06
2023-02-22T10:37:27.369Z,17.11
2023-02-22T10:40:17.935Z,17.22
2023-02-22T10:42:47.642Z,17.32
2023-02-22T10:45:22.670Z,17.44
2023-02-22T10:47:52.824Z,17.56
2023-02-22T10:50:22.306Z,17.63
2023-02-22T10:52:50.611Z,17.67
2023-02-22T10:55:19.880Z,17.84
2023-02-22T10:57:51.741Z,17.98
2023-02-22T11:00:37.719Z,18.05
2023-02-22T11:03:21.093Z,18.04
2023-02-22T11:05:51.016Z,18.04
2023-02-22T11:08:22.139Z,18.12
2023-02-22T11:10:53.189Z,18.09
2023-02-22T11:13:31.919Z,18.06
2023-02-22T11:16:18.415Z,18.05
2023-02-22T11:18:47.949Z,18.06
2023-02-22T11:21:23.146Z,18.03
2023-02-22T11:24:05.659Z,17.97
2023-02-22T11:26:50.311Z,17.98
2023-02-22T11:29:28.408Z,17.93
2023-02-22T11:31:57.084Z,17.94
2023-02-22T11:34:45.478Z,17.94
2023-02-22T11:37:33.161Z,17.91
2023-02-22T11:40:22.934Z,17.87
2023-02-22T11:43:16.568Z,17.86
2023-02-22T11:46:02.248Z,17.85
2023-02-22T11:48:39.258Z,17.82
2023-02-22T11:51:29.346Z,17.79
2023-02-22T11:54:34.845Z,17.79
2023-02-22T11:57:22.485Z,17.76
2023-02-22T12:00:08.528Z,17.74
2023-02-22T12:02:41.629Z,17.73
2023-02-22T12:05:20.989Z,17.70
2023-02-22T12:08:10.701Z,17.70
2023-02-22T12:10:55.541Z,17.69
2023-02-22T12:13:45.657Z,17.68
2023-02-22T12:16:20.929Z,17.66
2023-02-22T12:19:08.595Z,17.64
2023-02-22T12:21:41.511Z,17.64
2023-02-22T12:24:17.354Z,17.61
2023-02-22T12:26:54.463Z,17.59
2023-02-22T12:29:40.008Z,17.60
2023-02-22T12:32:21.321Z,17.57
2023-02-22T12:34:54.619Z,17.57
2023-02-22T12:37:35.769Z,17.56
2023-02-22T12:40:13.722Z,17.54
2023-02-22T12:43:01.269Z,17.55
2023-02-22T12:45:35.614Z,17.55
2023-02-22T12:48:21.990Z,17.51
2023-02-22T12:50:56.443Z,17.47
2023-02-22T12:53:37.295Z,17.45
2023-02-22T12:56:23.619Z,17.49
2023-02-22T12:59:08.637Z,17.48
2023-02-22T13:01:41.717Z,17.48
2023-02-22T13:04:20.464Z,17.48
2023-02-22T13:06:56.273Z,17.45
2023-02-22T13:09:39.110Z,17.45
2023-02-22T13:12:07.553Z,17.45
2023-02-22T13:14:39.500Z,17.41
2023-02-22T13:17:21.809Z,17.41
2023-02-22T13:19:53.411Z,17.39
2023-02-22T13:22:41.048Z,17.39
2023-02-22T13:25:34.316Z,17.35
2023-02-22T13:28:07.415Z,17.36
2023-02-22T13:30:50.994Z,17.34
2023-02-22T13:33:42.015Z,17.34
2023-02-22T13:36:25.763Z,17.32
2023-02-22T13:39:16.726Z,17.30
2023-02-22T13:41:48.685Z,17.32
2023-02-22T13:44:22.342Z,17.29
2023-02-22T13:47:01.105Z,17.27
2023-02-22T13:50:06.625Z,17.28
2023-02-22T13:52:39.123Z,17.28
2023-02-22T13:55:15.759Z,17.26
2023-02-22T13:57:48.891Z,17.26
2023-02-22T14:00:21.175Z,17.25
2023-02-22T14:03:03.256Z,17.25
2023-02-22T14:05:46.861Z,17.23
2023-02-22T14:08:32.077Z,17.23
2023-02-22T14:11:23.728Z,17.21
2023-02-22T14:13:53.932Z,17.21
2023-02-22T14:16:26.822Z,17.17
2023-02-22T14:19:15.302Z,17.20
2023-02-22T14:22:03.827Z,17.21
2023-02-22T14:24:45.114Z,17.16
2023-02-22T14:27:15.274Z,17.19
2023-02-22T14:30:00.707Z,17.17
2023-02-22T14:32:34.177Z,17.20
2023-02-22T14:35:25.439Z,17.18
2023-02-22T14:37:58.627Z,17.18
2023-02-22T14:40:30.862Z,17.18
2023-02-22T14:43:04.667Z,17.16
2023-02-22T14:45:35.068Z,17.11
2023-02-22T14:48:27.868Z,17.17
2023-02-22T14:51:11.773Z,17.17
2023-02-22T14:53:50.176Z,17.14
2023-02-22T14:56:25.652Z,17.13
2023-02-22T14:59:14.181Z,17.12
2023-02-22T15:01:55.685Z,17.11
2023-02-22T15:04:31.814Z,17.09
2023-02-22T15:07:01.846Z,17.08
2023-02-22T15:09:34.698Z,17.07
2023-02-22T15:12:03.608Z,17.06
2023-02-22T15:14:38.162Z,17.04
2023-02-22T15:17:22.714Z,17.04
2023-02-22T15:19:51.881Z,17.03
2023-02-22T15:22:23.956Z,17.02
2023-02-22T15:25:08.179Z,17.03
2023-02-22T15:27:37.480Z,17.03
2023-02-22T15:30:24.237Z,17.02
2023-02-22T15:33:03.711Z,17.02
2023-02-22T15:35:33.811Z,16.98
2023-02-22T15:38:16.460Z,17.00
2023-02-22T15:40:45.921Z,17.00
2023-02-22T15:43:28.807Z,17.00
2023-02-22T15:45:59.171Z,17.00
2023-02-22T15:48:29.030Z,16.98
2023-02-22T15:51:11.101Z,17.00
2023-02-22T15:53:43.689Z,16.97
2023-02-22T15:56:18.284Z,16.96
2023-02-22T15:58:48.059Z,16.98
2023-02-22T16:01:19.492Z,16.98
2023-02-22T16:03:59.367Z,16.94
2023-02-22T16:06:37.708Z,17.01
2023-02-22T16:09:13.547Z,17.05
2023-02-22T16:11:44.401Z,17.09
2023-02-22T16:14:28.348Z,17.17
2023-02-22T16:17:25.252Z,17.28
2023-02-22T16:19:54.211Z,17.31
2023-02-22T16:22:34.085Z,17.40
2023-02-22T16:25:17.227Z,17.52
2023-02-22T16:27:48.148Z,17.69
2023-02-22T16:30:38.074Z,17.78
2023-02-22T16:33:13.927Z,17.92
2023-02-22T16:35:52.241Z,17.96
2023-02-22T16:38:21.368Z,18.06
2023-02-22T16:40:52.656Z,18.11
2023-02-22T16:43:26.615Z,18.19
2023-02-22T16:45:55.485Z,18.28
2023-02-22T16:48:25.839Z,18.30
2023-02-22T16:50:57.415Z,18.37
2023-02-22T16:53:27.201Z,18.48
2023-02-22T16:56:00.244Z,18.58
2023-02-22T16:58:28.997Z,18.51
2023-02-22T17:00:57.944Z,18.53
2023-02-22T17:03:27.036Z,18.57
2023-02-22T17:05:55.862Z,18.53
2023-02-22T17:08:24.356Z,18.55
2023-02-22T17:10:56.969Z,18.45
2023-02-22T17:13:27.463Z,18.47
2023-02-22T17:15:57.780Z,18.37
2023-02-22T17:18:29.134Z,18.43
2023-02-22T17:20:57.691Z,18.44
2023-02-22T17:23:28.029Z,18.47
2023-02-22T17:26:03.573Z,18.50
2023-02-22T17:28:32.342Z,18.49
2023-02-22T17:31:04.394Z,18.43
2023-02-22T17:33:37.650Z,18.45
2023-02-22T17:36:06.685Z,18.44
2023-02-22T17:38:35.187Z,18.40
2023-02-22T17:41:07.027Z,18.38
2023-02-22T17:43:35.375Z,18.38
2023-02-22T17:46:10.535Z,18.41
2023-02-22T17:48:40.075Z,18.41
2023-02-22T17:51:11.307Z,18.56
2023-02-22T17:53:40.200Z,18.64
2023-02-22T17:56:14.277Z,18.63
2023-02-22T17:58:43.000Z,18.72
2023-02-22T18:01:22.100Z,18.85
2023-02-22T18:03:52.346Z,18.82
2023-02-22T18:06:25.330Z,18.85
2023-02-22T18:08:56.569Z,18.92
2023-02-22T18:11:27.602Z,18.93
2023-02-22T18:13:57.494Z,18.99
2023-02-22T18:16:26.864Z,18.94
2023-02-22T18:18:56.269Z,18.87
2023-02-22T18:21:27.123Z,18.83
2023-02-22T18:23:55.517Z,18.85
2023-02-22T18:26:25.771Z,18.83
2023-02-22T18:28:54.486Z,18.72
2023-02-22T18:31:23.909Z,18.67
2023-02-22T18:33:53.124Z,18.62
2023-02-22T18:36:23.394Z,18.61
2023-02-22T18:38:53.689Z,18.60
2023-02-22T18:41:26.781Z,18.56
2023-02-22T18:43:57.855Z,18.52
2023-02-22T18:46:26.659Z,18.52
2023-02-22T18:48:56.235Z,18.47
2023-02-22T18:51:26.513Z,18.45
2023-02-22T18:54:00.835Z,18.44
2023-02-22T18:56:30.593Z,18.44
2023-02-22T18:59:03.161Z,18.35
2023-02-22T19:01:41.312Z,18.38
2023-02-22T19:04:12.879Z,18.37
2023-02-22T19:06:43.367Z,18.33
2023-02-22T19:09:11.760Z,18.26
2023-02-22T19:11:45.027Z,18.28
2023-02-22T19:14:13.982Z,18.24
2023-02-22T19:16:46.776Z,18.24
2023-02-22T19:19:21.059Z,18.18
2023-02-22T19:21:51.101Z,18.19
2023-02-22T19:24:19.577Z,18.15
2023-02-22T19:26:53.860Z,18.15
2023-02-22T19:29:25.156Z,18.11
2023-02-22T19:31:54.180Z,18.09
2023-02-22T19:34:24.773Z,18.09
2023-02-22T19:36:53.809Z,18.04
2023-02-22T19:41:52.754Z,18.05
2023-02-22T19:44:21.424Z,18.08
2023-02-22T19:46:50.286Z,18.09
2023-02-22T19:49:18.623Z,18.14
2023-02-22T19:51:47.297Z,18.18
2023-02-22T19:54:25.705Z,18.22
2023-02-22T19:56:54.968Z,18.30
2023-02-22T19:59:23.817Z,18.46
2023-02-22T20:01:54.699Z,18.55
2023-02-22T20:04:23.803Z,18.54
2023-02-22T20:06:54.903Z,18.56
2023-02-22T20:09:40.042Z,18.60
2023-02-22T20:12:08.906Z,18.61
2023-02-22T20:14:37.592Z,18.58
2023-02-22T20:17:08.027Z,18.57
2023-02-22T20:19:38.237Z,18.58
2023-02-22T20:22:08.377Z,18.54
2023-02-22T20:24:36.945Z,18.56
2023-02-22T20:27:05.726Z,18.53
2023-02-22T20:29:35.387Z,18.51
2023-02-22T20:32:06.911Z,18.48
2023-02-22T20:34:37.249Z,18.43
2023-02-22T20:37:07.251Z,18.45
2023-02-22T20:39:36.619Z,18.43
2023-02-22T20:42:08.070Z,18.48
2023-02-22T20:44:37.984Z,18.51
2023-02-22T20:47:08.355Z,18.48
2023-02-22T20:49:37.464Z,18.49
2023-02-22T20:52:08.135Z,18.47
2023-02-22T20:54:39.366Z,18.47
2023-02-22T20:57:08.304Z,18.44
2023-02-22T20:59:37.790Z,18.43
2023-02-22T21:02:08.104Z,18.41
2023-02-22T21:04:39.104Z,18.41
2023-02-22T21:07:09.134Z,18.39
2023-02-22T21:09:39.607Z,18.38
2023-02-22T21:12:14.108Z,18.38
2023-02-22T21:14:44.456Z,18.36
2023-02-22T21:17:13.030Z,18.32
2023-02-22T21:20:12.800Z,18.29
2023-02-22T21:22:42.655Z,18.29
2023-02-22T21:25:10.940Z,18.22
2023-02-22T21:27:42.285Z,18.22
2023-02-22T21:30:11.106Z,18.21
2023-02-22T21:32:40.036Z,18.22
2023-02-22T21:35:08.763Z,18.22
2023-02-22T21:37:37.286Z,18.19
2023-02-22T21:40:11.748Z,18.19
2023-02-22T21:42:40.406Z,18.16
2023-02-22T21:45:09.127Z,18.13
2023-02-22T21:47:37.676Z,18.07
2023-02-22T21:50:07.923Z,18.07
2023-02-22T21:52:37.739Z,18.04
2023-02-22T21:55:06.493Z,18.02
2023-02-22T21:57:35.501Z,18.01
2023-02-22T22:00:13.056Z,18.00
2023-02-22T22:02:41.629Z,18.00
2023-02-22T22:05:10.193Z,17.95
2023-02-22T22:07:38.779Z,17.98
2023-02-22T22:10:07.597Z,17.96
2023-02-22T22:12:40.197Z,17.93
2023-02-22T22:15:09.518Z,17.94
2023-02-22T22:17:38.285Z,17.91
2023-02-22T22:20:10.487Z,17.93
2023-02-22T22:22:41.696Z,17.92
2023-02-22T22:25:13.665Z,17.89
2023-02-22T22:27:42.273Z,17.88
2023-02-22T22:30:16.710Z,17.88
2023-02-22T22:32:45.643Z,17.88
2023-02-22T22:35:16.773Z,17.83
2023-02-22T22:37:51.531Z,17.74
2023-02-22T22:40:20.079Z,17.79
2023-02-22T22:42:49.341Z,17.78
2023-02-22T22:45:18.501Z,17.74
2023-02-22T22:47:47.022Z,17.73
2023-02-22T22:50:18.961Z,17.70
2023-02-22T22:52:49.390Z,17.69
2023-02-22T22:55:19.346Z,17.67
2023-02-22T22:57:47.804Z,17.68
2023-02-22T23:00:42.384Z,17.65
2023-02-22T23:03:16.879Z,17.65
2023-02-22T23:05:46.440Z,17.63
2023-02-22T23:08:15.862Z,17.62
2023-02-22T23:10:44.320Z,17.61
2023-02-22T23:13:15.944Z,17.59
2023-02-22T23:15:47.894Z,17.59
2023-02-22T23:18:20.896Z,17.58
2023-02-22T23:20:55.314Z,17.56
2023-02-22T23:23:27.890Z,17.57
2023-02-22T23:26:18.171Z,17.56
2023-02-22T23:28:48.535Z,17.53
2023-02-22T23:31:18.349Z,17.53
2023-02-22T23:33:50.572Z,17.52
2023-02-22T23:36:19.637Z,17.51
2023-02-22T23:38:49.053Z,17.51
2023-02-22T23:41:17.516Z,17.50
2023-02-22T23:43:46.466Z,17.47
2023-02-22T23:46:19.057Z,17.46
2023-02-22T23:48:53.115Z,17.46
2023-02-22T23:51:26.382Z,17.45
2023-02-22T23:53:56.488Z,17.45
2023-02-22T23:56:27.347Z,17.44
2023-02-22T23:58:57.683Z,17.43
